Time;durP1;ratioP1;P1;durP2;ratioP2;P2;SDS_P1;SDS_P2;PMS_P1;PMS_P2;Temp;Humidity;BMP_temperature;BMP_pressure;BME280_temperature;BME280_humidity;BME280_pressure;Samples;Min_cycle;Max_cycle;Signal;HPM_P1;HPM_P2
2022/04/12 00:02:21;;;;;;;22.90;12.50;;;;;;;1.12;65.92;100557.95;128977;1287;100538;-79
2022/04/12 00:05:24;;;;;;;24.20;14.50;;;;;;;1.14;65.81;100555.73;128912;1287;99379;-80
2022/04/12 00:08:27;;;;;;;25.10;14.20;;;;;;;1.11;65.76;100560.09;128595;1287;99443;-79
2022/04/12 00:11:30;;;;;;;24.20;14.60;;;;;;;1.15;65.84;100556.00;128459;1287;100576;-81
2022/04/12 00:14:32;;;;;;;24.90;14.40;;;;;;;1.13;65.80;100554.88;128226;1287;99788;-80
2022/04/12 00:20:57;;;;;;;;;;;;;;;1.09;65.75;100548.85;128633;1287;99729;-81
2022/04/12 00:24:00;;;;;;;24.40;14.20;;;;;;;1.08;65.75;100551.16;128164;1287;327338;-84
2022/04/12 00:27:03;;;;;;;25.40;14.40;;;;;;;1.07;65.80;100552.45;128715;1287;100538;-79
2022/04/12 00:30:09;;;;;;;23.40;13.80;;;;;;;1.01;66.03;100551.70;128144;1288;100621;-80
2022/04/12 00:33:12;;;;;;;22.70;13.10;;;;;;;1.00;65.96;100550.91;128468;1287;99339;-79
2022/04/12 00:36:14;;;;;;;24.30;13.60;;;;;;;1.01;66.09;100552.08;128530;1287;99348;-80
2022/04/12 00:39:18;;;;;;;25.00;13.10;;;;;;;0.93;65.86;100550.91;128443;1287;100004;-79
2022/04/12 00:42:21;;;;;;;25.60;13.90;;;;;;;0.88;66.02;100551.73;128459;1287;99361;-78
2022/04/12 00:45:23;;;;;;;23.00;13.30;;;;;;;0.81;65.79;100560.33;128483;1287;99827;-80
2022/04/12 00:48:26;;;;;;;23.40;13.60;;;;;;;0.74;65.96;100556.52;128556;1287;99665;-77
2022/04/12 00:51:29;;;;;;;23.30;13.10;;;;;;;0.68;65.87;100557.55;128429;1287;99372;-79
2022/04/12 00:54:33;;;;;;;22.40;13.20;;;;;;;0.59;66.02;100556.27;128508;1287;99376;-79
2022/04/12 00:57:37;;;;;;;23.60;13.40;;;;;;;0.55;66.16;100560.33;128643;1287;99358;-79
2022/04/12 01:00:40;;;;;;;24.50;14.10;;;;;;;0.50;65.61;100560.61;128466;1287;100635;-79
2022/04/12 01:03:43;;;;;;;25.10;14.30;;;;;;;0.40;65.98;100560.23;128376;1287;99819;-79
2022/04/12 01:06:45;;;;;;;23.70;13.90;;;;;;;0.38;66.10;100562.10;128543;1287;100550;-79
2022/04/12 01:09:48;;;;;;;26.50;14.70;;;;;;;0.33;66.00;100560.09;128349;1287;99810;-78
2022/04/12 01:12:52;;;;;;;26.60;15.10;;;;;;;0.31;66.16;100561.39;128511;1287;101201;-77
2022/04/12 01:15:55;;;;;;;27.70;14.10;;;;;;;0.24;65.64;100564.59;128430;1287;100423;-77
2022/04/12 01:18:58;;;;;;;23.10;13.20;;;;;;;0.24;66.01;100561.23;128389;1287;99433;-79
2022/04/12 01:22:05;;;;;;;20.30;11.80;;;;;;;0.31;65.84;100565.08;128314;1287;99370;-78
2022/04/12 01:25:08;;;;;;;23.20;12.80;;;;;;;0.34;65.98;100566.84;128474;1287;99385;-78
2022/04/12 01:28:12;;;;;;;24.70;13.60;;;;;;;0.39;65.98;100572.89;128380;1287;100542;-78
2022/04/12 01:31:15;;;;;;;21.30;12.40;;;;;;;0.33;65.78;100574.94;128454;1287;99461;-78
2022/04/12 01:34:18;;;;;;;22.50;13.90;;;;;;;0.35;65.87;100572.04;128593;1287;99451;-78
2022/04/12 01:37:21;;;;;;;23.50;13.60;;;;;;;0.35;65.93;100577.48;128493;1288;99353;-78
2022/04/12 01:40:24;;;;;;;23.10;13.90;;;;;;;0.34;65.89;100574.19;128472;1287;99652;-77
2022/04/12 01:43:27;;;;;;;24.40;13.80;;;;;;;0.33;65.76;100572.66;128515;1287;99501;-76
2022/04/12 01:46:29;;;;;;;22.30;14.80;;;;;;;0.29;65.35;100574.61;128461;1287;99423;-79
2022/04/12 01:49:32;;;;;;;25.50;14.70;;;;;;;0.22;65.63;100574.49;128644;1287;99387;-81
2022/04/12 01:52:35;;;;;;;24.90;14.40;;;;;;;0.19;65.82;100575.86;128656;1287;99397;-80
2022/04/12 01:55:38;;;;;;;25.20;14.60;;;;;;;0.20;66.06;100572.48;128336;1287;99494;-79
2022/04/12 01:58:42;;;;;;;23.20;14.30;;;;;;;0.17;65.74;100574.52;128039;1288;99354;-80
2022/04/12 02:01:45;;;;;;;29.30;15.40;;;;;;;0.01;65.38;100577.84;128456;1287;99350;-81
2022/04/12 02:04:47;;;;;;;25.00;13.80;;;;;;;-0.08;65.56;100579.69;128626;1287;99730;-79
2022/04/12 02:07:50;;;;;;;25.00;14.30;;;;;;;-0.12;66.01;100582.45;128506;1287;99363;-77
2022/04/12 02:10:53;;;;;;;24.50;14.80;;;;;;;-0.11;65.85;100584.55;128322;1287;99337;-81
2022/04/12 02:13:55;;;;;;;27.80;15.10;;;;;;;-0.24;65.74;100581.48;128422;1288;99476;-84
2022/04/12 02:16:58;;;;;;;26.70;15.10;;;;;;;-0.30;65.98;100584.59;128524;1287;101130;-79
2022/04/12 02:20:01;;;;;;;26.70;15.50;;;;;;;-0.29;66.00;100580.56;128622;1287;100538;-79
2022/04/12 02:23:03;;;;;;;27.80;14.60;;;;;;;-0.30;66.04;100583.76;128329;1287;99370;-77
2022/04/12 02:26:06;;;;;;;25.60;15.40;;;;;;;-0.32;65.96;100586.13;128412;1287;99407;-77
2022/04/12 02:29:09;;;;;;;27.80;15.90;;;;;;;-0.32;66.19;100590.14;128339;1287;99370;-78
2022/04/12 02:32:12;;;;;;;25.90;15.30;;;;;;;-0.32;66.03;100594.84;128182;1287;99352;-76
2022/04/12 02:35:15;;;;;;;25.80;14.70;;;;;;;-0.42;65.15;100598.48;128380;1287;99373;-77
2022/04/12 02:38:18;;;;;;;28.80;15.40;;;;;;;-0.59;65.82;100600.66;128308;1287;100856;-78
2022/04/12 02:41:20;;;;;;;27.70;15.50;;;;;;;-0.61;65.88;100602.20;128130;1287;99446;-79
2022/04/12 02:44:23;;;;;;;27.80;16.10;;;;;;;-0.63;65.78;100603.87;128457;1287;99433;-78
2022/04/12 02:47:28;;;;;;;29.40;16.60;;;;;;;-0.68;65.77;100607.21;128351;1287;99366;-75
2022/04/12 02:50:30;;;;;;;28.80;15.70;;;;;;;-0.70;65.67;100607.84;128438;1287;100050;-77
2022/04/12 02:53:33;;;;;;;28.60;15.00;;;;;;;-0.60;66.25;100608.43;128407;1288;99382;-76
2022/04/12 02:56:36;;;;;;;26.20;14.30;;;;;;;-0.50;65.96;100609.34;128440;1287;100500;-75
2022/04/12 02:59:39;;;;;;;29.60;15.20;;;;;;;-0.39;65.92;100613.20;128491;1287;99387;-76
2022/04/12 03:02:41;;;;;;;27.20;15.10;;;;;;;-0.32;65.84;100606.91;128354;1287;100056;-77
2022/04/12 03:05:44;;;;;;;27.40;15.00;;;;;;;-0.36;65.30;100613.40;128260;1287;99437;-76
2022/04/12 03:08:47;;;;;;;27.60;15.70;;;;;;;-0.50;65.39;100610.73;128623;1287;100548;-81
2022/04/12 03:11:49;;;;;;;26.90;15.30;;;;;;;-0.56;65.63;100614.20;128436;1287;99487;-74
2022/04/12 03:14:52;;;;;;;25.80;15.00;;;;;;;-0.55;65.92;100616.23;128293;1287;99354;-75
2022/04/12 03:17:55;;;;;;;26.70;14.90;;;;;;;-0.55;65.63;100620.08;128390;1287;100525;-79
2022/04/12 03:20:58;;;;;;;27.80;14.90;;;;;;;-0.66;65.39;100625.14;128392;1287;111939;-77
2022/04/12 03:24:01;;;;;;;27.80;15.80;;;;;;;-0.69;65.81;100625.64;128211;1287;99369;-75
2022/04/12 03:27:04;;;;;;;26.10;15.40;;;;;;;-0.70;65.89;100630.02;128168;1287;99354;-77
2022/04/12 03:30:09;;;;;;;26.40;15.30;;;;;;;-0.70;65.86;100629.67;128206;1287;99363;-75
2022/04/12 03:33:11;;;;;;;27.30;15.80;;;;;;;-0.74;65.79;100635.27;128267;1287;112554;-75
2022/04/12 03:36:14;;;;;;;29.90;16.40;;;;;;;-0.75;65.78;100632.71;128253;1287;99333;-76
2022/04/12 03:39:17;;;;;;;30.30;16.90;;;;;;;-0.74;65.96;100630.06;128463;1287;99450;-76
2022/04/12 03:42:20;;;;;;;31.10;17.80;;;;;;;-0.75;65.88;100629.05;128308;1287;113781;-77
2022/04/12 03:45:23;;;;;;;29.90;17.10;;;;;;;-0.75;65.92;100632.54;128272;1287;100548;-77
2022/04/12 03:48:26;;;;;;;31.50;17.00;;;;;;;-0.76;65.55;100635.05;128329;1287;99954;-75
2022/04/12 03:51:28;;;;;;;29.40;17.10;;;;;;;-0.82;65.77;100638.29;128390;1287;99708;-77
2022/04/12 03:54:31;;;;;;;33.80;17.60;;;;;;;-0.84;65.78;100640.98;128350;1287;99960;-78
2022/04/12 03:57:34;;;;;;;30.00;17.20;;;;;;;-0.84;65.92;100638.05;128417;1288;99456;-76
2022/04/12 04:00:37;;;;;;;33.70;17.30;;;;;;;-0.82;65.84;100643.32;128400;1287;100573;-78
2022/04/12 04:03:39;;;;;;;30.20;17.00;;;;;;;-0.84;65.66;100642.91;128404;1287;99351;-76
2022/04/12 04:06:42;;;;;;;32.10;17.00;;;;;;;-0.83;65.63;100646.02;128369;1287;99366;-77
2022/04/12 04:09:45;;;;;;;32.90;17.20;;;;;;;-0.84;65.59;100650.45;128222;1287;108722;-76
2022/04/12 04:12:48;;;;;;;31.80;18.00;;;;;;;-0.84;65.72;100653.74;128347;1287;99870;-78
2022/04/12 04:15:51;;;;;;;32.90;19.30;;;;;;;-0.81;65.75;100654.30;128332;1287;99426;-78
2022/04/12 04:18:54;;;;;;;37.20;18.90;;;;;;;-0.76;65.74;100657.73;128363;1287;99842;-76
2022/04/12 04:21:56;;;;;;;32.30;19.00;;;;;;;-0.71;65.83;100659.08;128332;1287;100544;-77
2022/04/12 04:24:59;;;;;;;37.20;21.00;;;;;;;-0.66;65.96;100661.31;128327;1287;99432;-78
2022/04/12 04:28:05;;;;;;;38.20;19.40;;;;;;;-0.60;66.00;100657.85;128279;1287;99971;-79
2022/04/12 04:31:09;;;;;;;34.70;18.90;;;;;;;-0.44;66.19;100656.23;128264;1287;109200;-78
2022/04/12 04:34:11;;;;;;;31.60;17.30;;;;;;;-0.19;66.17;100658.91;128226;1287;108908;-76
2022/04/12 04:37:14;;;;;;;30.70;17.00;;;;;;;0.08;66.13;100655.13;128307;1287;99903;-75
2022/04/12 04:40:18;;;;;;;31.10;18.90;;;;;;;0.38;65.99;100654.83;128287;1287;99359;-77
2022/04/12 04:43:21;;;;;;;30.80;19.30;;;;;;;0.66;65.99;100657.09;128259;1287;108935;-75
2022/04/12 04:46:24;;;;;;;32.30;19.20;;;;;;;0.92;65.95;100656.42;128412;1288;99343;-78
2022/04/12 04:49:27;;;;;;;31.50;18.60;;;;;;;1.16;65.96;100660.25;128380;1286;99490;-78
2022/04/12 04:52:30;;;;;;;33.40;19.90;;;;;;;1.37;65.89;100664.31;128453;1287;99443;-76
2022/04/12 04:55:35;;;;;;;31.50;19.40;;;;;;;1.53;65.93;100664.17;128324;1287;99500;-76
2022/04/12 04:58:37;;;;;;;33.90;20.30;;;;;;;1.70;66.04;100666.71;128320;1287;107566;-77
2022/04/12 05:01:40;;;;;;;34.60;21.00;;;;;;;1.90;65.99;100670.85;128200;1287;99449;-75
2022/04/12 05:04:43;;;;;;;36.90;21.70;;;;;;;2.08;66.19;100676.52;128085;1287;100559;-73
2022/04/12 05:07:48;;;;;;;39.60;24.80;;;;;;;2.28;66.16;100676.61;128406;1287;99446;-75
2022/04/12 05:10:51;;;;;;;38.30;23.10;;;;;;;2.45;66.21;100681.42;128436;1287;108522;-75
2022/04/12 05:13:55;;;;;;;36.70;22.10;;;;;;;2.56;66.11;100680.36;128411;1287;99706;-75
2022/04/12 05:16:58;;;;;;;36.50;22.40;;;;;;;2.69;66.22;100678.16;128221;1288;108997;-74
2022/04/12 05:20:00;;;;;;;32.80;21.40;;;;;;;2.87;66.34;100682.23;128486;1287;100450;-77
2022/04/12 05:23:03;;;;;;;33.70;21.40;;;;;;;2.97;66.36;100687.24;128471;1287;99392;-76
2022/04/12 05:26:06;;;;;;;36.10;22.30;;;;;;;3.02;66.53;100688.52;128457;1287;99429;-76
2022/04/12 05:29:08;;;;;;;42.30;25.60;;;;;;;3.05;66.38;100693.80;128438;1287;99348;-75
2022/04/12 05:32:13;;;;;;;44.60;25.40;;;;;;;3.08;66.64;100697.83;128492;1287;99379;-76
2022/04/12 05:35:15;;;;;;;60.00;29.10;;;;;;;3.12;66.82;100704.59;128545;1287;100440;-75
2022/04/12 05:38:18;;;;;;;79.20;33.20;;;;;;;3.15;67.08;100708.10;128412;1287;99386;-75
2022/04/12 05:41:25;;;;;;;91.10;41.20;;;;;;;3.21;67.29;100709.31;128458;1287;108734;-75
2022/04/12 05:44:28;;;;;;;52.00;29.30;;;;;;;3.28;67.39;100707.86;128392;1287;99869;-76
2022/04/12 05:47:41;;;;;;;61.20;30.60;;;;;;;3.38;67.60;100710.19;128520;1287;99478;-76
2022/04/12 05:50:44;;;;;;;47.40;28.80;;;;;;;3.54;67.94;100709.04;128374;1287;109499;-74
2022/04/12 05:53:46;;;;;;;42.20;26.10;;;;;;;3.68;68.20;100707.78;128404;1287;108747;-75
2022/04/12 05:56:50;;;;;;;40.90;24.70;;;;;;;3.81;68.31;100708.73;128517;1287;99895;-75
2022/04/12 05:59:52;;;;;;;43.80;27.70;;;;;;;3.92;68.35;100710.30;128561;1287;100066;-76
2022/04/12 06:02:56;;;;;;;55.10;34.60;;;;;;;3.99;68.42;100714.81;128442;1287;99834;-75
2022/04/12 06:05:59;;;;;;;43.00;25.20;;;;;;;4.06;68.77;100715.05;128425;1287;108712;-74
2022/04/12 06:09:03;;;;;;;22.80;14.90;;;;;;;4.13;69.04;100715.84;128465;1287;99797;-75
2022/04/12 06:12:07;;;;;;;22.30;11.70;;;;;;;4.22;68.99;100723.88;128514;1287;108680;-75
2022/04/12 06:15:11;;;;;;;22.10;12.00;;;;;;;4.30;69.31;100723.13;128450;1287;107627;-75
2022/04/12 06:18:13;;;;;;;22.90;13.20;;;;;;;4.44;69.53;100729.50;128520;1287;108982;-74
2022/04/12 06:21:16;;;;;;;24.00;13.50;;;;;;;4.57;69.26;100725.60;128523;1287;99367;-75
2022/04/12 06:24:19;;;;;;;21.70;14.80;;;;;;;4.70;68.98;100726.48;128546;1287;99893;-75
2022/04/12 06:27:30;;;;;;;22.30;14.80;;;;;;;4.81;69.18;100725.91;128601;1287;102805;-75
2022/04/12 06:30:34;;;;;;;24.70;13.90;;;;;;;4.93;68.86;100731.81;128566;1287;108870;-74
2022/04/12 06:33:36;;;;;;;23.80;13.80;;;;;;;4.99;68.87;100732.64;128594;1287;108721;-75
2022/04/12 06:36:39;;;;;;;23.30;14.50;;;;;;;5.04;68.99;100742.67;128583;1287;99720;-75
2022/04/12 06:39:42;;;;;;;24.20;14.70;;;;;;;5.08;68.56;100740.64;128634;1287;99585;-76
2022/04/12 06:42:44;;;;;;;24.90;16.40;;;;;;;5.12;68.57;100746.16;128539;1287;100548;-74
2022/04/12 06:45:47;;;;;;;20.90;14.40;;;;;;;5.18;68.83;100745.92;128505;1287;99324;-75
2022/04/12 06:48:50;;;;;;;25.00;15.10;;;;;;;5.24;68.64;100751.91;128334;1287;99386;-75
2022/04/12 06:51:53;;;;;;;26.50;16.80;;;;;;;5.29;68.92;100753.63;128457;1287;99339;-75
2022/04/12 06:54:55;;;;;;;27.70;17.10;;;;;;;5.39;68.86;100754.38;128492;1287;99358;-74
2022/04/12 06:57:58;;;;;;;23.20;15.00;;;;;;;5.48;68.74;100754.77;128353;1287;100538;-74
2022/04/12 07:01:01;;;;;;;25.60;15.70;;;;;;;5.55;68.93;100754.70;128389;1287;99754;-75
2022/04/12 07:04:04;;;;;;;19.80;13.40;;;;;;;5.63;68.65;100754.48;128497;1286;99466;-74
2022/04/12 07:07:06;;;;;;;17.50;12.60;;;;;;;5.73;68.35;100758.51;128537;1287;99366;-74
2022/04/12 07:10:11;;;;;;;17.70;10.90;;;;;;;5.79;68.11;100758.27;128361;1287;99740;-75
2022/04/12 07:13:14;;;;;;;16.80;11.50;;;;;;;5.84;67.58;100766.36;128522;1287;99367;-74
2022/04/12 07:16:17;;;;;;;16.40;11.40;;;;;;;5.84;67.21;100764.05;128443;1287;99855;-74
2022/04/12 07:19:20;;;;;;;17.70;10.60;;;;;;;5.89;67.67;100763.73;128451;1287;99974;-74
2022/04/12 07:22:23;;;;;;;16.50;10.60;;;;;;;5.99;67.40;100771.39;128356;1286;99345;-75
2022/04/12 07:25:26;;;;;;;14.00;10.30;;;;;;;6.06;67.40;100768.36;128417;1287;99433;-75
2022/04/12 07:28:29;;;;;;;11.80;8.80;;;;;;;6.15;67.56;100769.86;128366;1287;99342;-74
2022/04/12 07:31:32;;;;;;;9.20;5.20;;;;;;;6.24;66.82;100769.13;128341;1288;99474;-72
2022/04/12 07:34:35;;;;;;;8.60;4.90;;;;;;;6.32;65.63;100773.21;128395;1287;99517;-75
2022/04/12 07:37:41;;;;;;;10.10;6.80;;;;;;;6.40;64.78;100774.05;128383;1287;100558;-75
2022/04/12 07:40:44;;;;;;;13.90;8.80;;;;;;;6.50;65.59;100775.78;128500;1287;99368;-75
2022/04/12 07:43:48;;;;;;;10.30;7.10;;;;;;;6.64;65.73;100776.42;128346;1288;99351;-75
2022/04/12 07:46:51;;;;;;;11.60;6.70;;;;;;;6.80;65.46;100779.86;128447;1290;99949;-74
2022/04/12 07:49:53;;;;;;;6.80;4.90;;;;;;;6.92;65.13;100775.58;128489;1286;100494;-75
2022/04/12 07:52:56;;;;;;;6.40;4.10;;;;;;;7.01;62.88;100764.30;128556;1287;99475;-75
2022/04/12 07:55:59;;;;;;;5.90;3.60;;;;;;;7.05;62.42;100768.56;128403;1287;100544;-75
2022/04/12 07:59:02;;;;;;;6.20;3.00;;;;;;;7.10;61.71;100777.80;128262;1287;99399;-76
2022/04/12 08:02:05;;;;;;;3.40;2.40;;;;;;;7.11;61.72;100778.40;128385;1287;100748;-75
2022/04/12 08:05:09;;;;;;;3.80;2.40;;;;;;;7.14;60.33;100777.30;128420;1287;100601;-75
2022/04/12 08:08:12;;;;;;;5.90;2.70;;;;;;;7.16;58.66;100777.88;128346;1287;100560;-74
2022/04/12 08:11:15;;;;;;;6.90;4.00;;;;;;;7.19;60.10;100782.59;128403;1287;99392;-75
2022/04/12 08:14:17;;;;;;;4.50;3.00;;;;;;;7.28;61.55;100779.40;128365;1287;99480;-74
2022/04/12 08:17:20;;;;;;;5.10;3.90;;;;;;;7.36;60.50;100775.27;128440;1287;99874;-74
2022/04/12 08:20:23;;;;;;;5.70;4.00;;;;;;;7.43;60.30;100780.69;128549;1287;99765;-75
2022/04/12 08:23:26;;;;;;;4.80;2.50;;;;;;;7.49;57.43;100780.45;128519;1286;100552;-75
2022/04/12 08:26:29;;;;;;;6.00;3.60;;;;;;;7.54;58.94;100778.48;128494;1287;101296;-75
2022/04/12 08:29:31;;;;;;;9.10;5.80;;;;;;;7.64;59.30;100783.13;128502;1287;99463;-74
2022/04/12 08:32:34;;;;;;;9.90;5.40;;;;;;;7.75;59.90;100780.33;128402;1287;100426;-73
2022/04/12 08:35:37;;;;;;;10.10;7.20;;;;;;;7.87;60.29;100778.70;128487;1287;100537;-74
2022/04/12 08:38:40;;;;;;;5.80;3.60;;;;;;;7.93;54.83;100790.05;128304;1287;100535;-74
2022/04/12 08:41:43;;;;;;;6.70;5.00;;;;;;;7.97;57.09;100795.91;128430;1287;99445;-74
2022/04/12 08:44:47;;;;;;;6.50;4.60;;;;;;;8.08;58.21;100791.34;128424;1287;99718;-74
2022/04/12 08:47:51;;;;;;;8.30;5.80;;;;;;;8.24;58.30;100784.69;128421;1287;99376;-75
2022/04/12 08:50:54;;;;;;;7.90;5.10;;;;;;;8.44;56.95;100784.72;128381;1287;99367;-72
2022/04/12 08:53:58;;;;;;;6.50;4.50;;;;;;;8.60;56.02;100791.01;128623;1287;100454;-75
2022/04/12 08:57:01;;;;;;;6.50;4.80;;;;;;;8.70;54.65;100791.65;128598;1287;99450;-74
2022/04/12 09:00:06;;;;;;;7.30;4.80;;;;;;;8.66;54.89;100789.45;128390;1287;99389;-75
2022/04/12 09:03:08;;;;;;;6.90;4.70;;;;;;;8.51;54.67;100790.30;128462;1287;99458;-75
2022/04/12 09:06:12;;;;;;;6.70;4.30;;;;;;;8.44;55.78;100790.19;128369;1287;99347;-74
2022/04/12 09:09:18;;;;;;;6.40;4.30;;;;;;;8.56;57.16;100786.90;128384;1287;99372;-75
2022/04/12 09:12:22;;;;;;;7.80;5.10;;;;;;;8.71;56.48;100788.89;128443;1287;99433;-75
2022/04/12 09:15:25;;;;;;;8.40;5.00;;;;;;;8.73;55.83;100788.56;128395;1287;99384;-75
2022/04/12 09:18:36;;;;;;;6.40;4.40;;;;;;;8.80;56.80;100786.38;128434;1287;100566;-75
2022/04/12 09:21:47;;;;;;;6.30;3.90;;;;;;;8.88;56.17;100781.75;128528;1287;100566;-75
2022/04/12 09:24:51;;;;;;;7.00;4.50;;;;;;;8.98;56.55;100776.33;128485;1287;99570;-75
2022/04/12 09:27:55;;;;;;;5.80;3.90;;;;;;;9.11;56.40;100774.56;128432;1287;99481;-73
2022/04/12 09:31:00;;;;;;;5.90;4.00;;;;;;;9.26;56.76;100774.83;128411;1287;100539;-75
2022/04/12 09:34:03;;;;;;;5.90;3.90;;;;;;;9.30;56.39;100777.84;128455;1287;99370;-74
2022/04/12 09:37:21;;;;;;;4.50;3.60;;;;;;;9.25;53.54;100775.81;128401;1287;101587;-74
2022/04/12 09:40:26;;;;;;;4.60;3.30;;;;;;;9.17;52.37;100768.71;128480;1287;100445;-74
2022/04/12 09:43:30;;;;;;;4.70;3.40;;;;;;;9.04;53.99;100764.84;128351;1287;100597;-74
2022/04/12 09:46:33;;;;;;;4.90;3.50;;;;;;;9.12;54.96;100759.58;128431;1287;99451;-74
2022/04/12 09:49:45;;;;;;;8.10;4.80;;;;;;;9.31;55.23;100758.27;128625;1287;99363;-73
2022/04/12 09:52:54;;;;;;;7.30;4.00;;;;;;;9.55;54.82;100756.74;128570;1287;100633;-75
2022/04/12 09:55:56;;;;;;;6.90;4.40;;;;;;;9.71;54.02;100758.34;128593;1287;100318;-75
2022/04/12 09:59:01;;;;;;;6.50;4.20;;;;;;;9.70;54.30;100752.36;128349;1286;99458;-76
2022/04/12 10:02:04;;;;;;;6.70;4.70;;;;;;;9.71;53.44;100752.87;128420;1287;99767;-75
2022/04/12 10:05:08;;;;;;;5.70;4.70;;;;;;;9.70;54.02;100759.17;128356;1287;101786;-75
2022/04/12 10:08:13;;;;;;;7.70;5.20;;;;;;;9.69;52.91;100760.83;128428;1287;99511;-75
2022/04/12 10:11:15;;;;;;;5.90;4.60;;;;;;;9.44;51.60;100753.96;128362;1287;99488;-75
2022/04/12 10:14:19;;;;;;;5.10;3.90;;;;;;;9.18;50.98;100759.73;128409;1286;99839;-75
2022/04/12 10:17:23;;;;;;;5.40;4.20;;;;;;;8.99;50.67;100756.37;128530;1287;122786;-75
2022/04/12 10:20:27;;;;;;;7.40;4.30;;;;;;;8.94;52.81;100759.79;128369;1287;99900;-75
2022/04/12 10:23:31;;;;;;;5.30;4.30;;;;;;;9.07;52.86;100761.34;128293;1287;99379;-74
2022/04/12 10:26:34;;;;;;;7.30;5.20;;;;;;;9.23;51.67;100761.63;128429;1287;99412;-75
2022/04/12 10:29:37;;;;;;;6.80;4.40;;;;;;;9.33;51.60;100760.95;128505;1287;99376;-75
2022/04/12 10:32:58;;;;;;;6.30;4.10;;;;;;;9.45;52.27;100757.36;128359;1287;99475;-75
2022/04/12 10:36:05;;;;;;;7.90;5.20;;;;;;;9.61;51.66;100757.77;128421;1287;100436;-75
2022/04/12 10:39:12;;;;;;;5.70;4.40;;;;;;;9.69;50.85;100760.98;128128;1287;100082;-75
2022/04/12 10:42:25;;;;;;;5.60;4.50;;;;;;;9.76;51.10;100759.80;128350;1287;99416;-75
2022/04/12 10:45:32;;;;;;;5.30;4.20;;;;;;;9.98;51.26;100758.64;128351;1286;122742;-75
2022/04/12 10:48:35;;;;;;;7.60;5.10;;;;;;;10.17;52.29;100747.86;128386;1287;99388;-75
2022/04/12 10:51:40;;;;;;;7.70;4.30;;;;;;;10.29;50.72;100755.15;128442;1287;99332;-75
2022/04/12 10:54:43;;;;;;;6.70;4.50;;;;;;;10.19;47.53;100754.60;128557;1287;100225;-75
2022/04/12 10:57:47;;;;;;;6.30;4.00;;;;;;;10.07;48.30;100754.55;128536;1287;99366;-75
2022/04/12 11:00:49;;;;;;;4.90;3.80;;;;;;;10.05;49.62;100746.80;128405;1287;101629;-75
2022/04/12 11:03:56;;;;;;;5.20;4.40;;;;;;;10.10;49.77;100742.21;128489;1287;99427;-75
2022/04/12 11:07:00;;;;;;;6.50;5.00;;;;;;;10.08;48.40;100744.80;128569;1287;99543;-75
2022/04/12 11:10:20;;;;;;;7.60;5.80;;;;;;;9.90;49.93;100743.91;128503;1287;100628;-75
2022/04/12 11:13:27;;;;;;;5.60;4.20;;;;;;;9.77;48.78;100749.09;128351;1287;100072;-72
2022/04/12 11:16:30;;;;;;;7.70;4.50;;;;;;;9.71;48.17;100752.64;128310;1287;100398;-73
2022/04/12 11:19:43;;;;;;;6.30;4.40;;;;;;;9.66;49.09;100747.55;128249;1287;99384;-75
2022/04/12 11:22:56;;;;;;;5.70;3.90;;;;;;;9.62;48.92;100749.13;128350;1287;100688;-74
2022/04/12 11:26:26;;;;;;;7.30;4.30;;;;;;;9.58;49.68;100747.91;128268;1287;99458;-73
2022/04/12 11:29:30;;;;;;;6.60;4.40;;;;;;;9.57;48.61;100749.95;128374;1287;99475;-73
2022/04/12 11:32:33;;;;;;;10.80;4.50;;;;;;;9.56;49.47;100748.83;128244;1287;101259;-73
2022/04/12 11:35:38;;;;;;;6.30;4.70;;;;;;;9.64;49.54;100749.36;128273;1287;100556;-75
2022/04/12 11:38:42;;;;;;;6.10;4.00;;;;;;;9.72;47.45;100753.45;128359;1287;99628;-75
2022/04/12 11:41:44;;;;;;;5.50;4.20;;;;;;;9.76;47.98;100750.60;128258;1287;99645;-73
2022/04/12 11:44:55;;;;;;;5.40;3.90;;;;;;;9.86;48.16;100747.08;128226;1287;100037;-73
2022/04/12 11:47:58;;;;;;;4.70;3.60;;;;;;;9.94;47.67;100749.34;128393;1287;99476;-74
2022/04/12 11:51:05;;;;;;;5.10;3.70;;;;;;;10.02;48.09;100745.96;128408;1287;102551;-74
2022/04/12 11:54:24;;;;;;;5.40;4.00;;;;;;;10.12;47.20;100740.51;128361;1287;99455;-74
2022/04/12 11:57:26;;;;;;;5.50;3.60;;;;;;;10.19;47.06;100743.94;128273;1287;102463;-74
2022/04/12 12:00:30;;;;;;;5.00;3.50;;;;;;;10.28;47.19;100744.05;128353;1287;100079;-75
2022/04/12 12:03:36;;;;;;;6.40;3.50;;;;;;;10.36;47.98;100739.73;128345;1287;101216;-75
2022/04/12 12:06:54;;;;;;;4.30;3.40;;;;;;;10.47;46.60;100742.33;128385;1287;99490;-75
2022/04/12 12:09:59;;;;;;;3.90;3.40;;;;;;;10.57;46.89;100738.06;128380;1287;99402;-74
2022/04/12 12:13:06;;;;;;;5.50;3.80;;;;;;;10.58;44.99;100741.95;128427;1287;100547;-74
2022/04/12 12:16:16;;;;;;;6.40;4.30;;;;;;;10.52;46.01;100734.89;128424;1287;99396;-75
2022/04/12 12:19:21;;;;;;;4.50;3.60;;;;;;;10.49;46.20;100726.83;128342;1287;100170;-75
2022/04/12 12:22:35;;;;;;;3.60;2.80;;;;;;;10.52;46.56;100726.17;128185;1288;140392;-75
2022/04/12 12:25:41;;;;;;;3.70;2.90;;;;;;;10.50;43.72;100721.60;128198;1287;100582;-75
2022/04/12 12:28:43;;;;;;;4.80;3.10;;;;;;;10.49;43.72;100722.72;128319;1287;100037;-74
2022/04/12 12:31:46;;;;;;;4.10;3.10;;;;;;;10.51;44.35;100721.64;128375;1287;99355;-75
2022/04/12 12:34:49;;;;;;;5.10;3.10;;;;;;;10.56;46.13;100721.20;128417;1286;99350;-75
2022/04/12 12:38:00;;;;;;;4.80;3.10;;;;;;;10.65;45.78;100721.61;128215;1287;99363;-74
2022/04/12 12:41:03;;;;;;;3.90;3.10;;;;;;;10.69;45.59;100719.52;128329;1287;102210;-74
2022/04/12 12:44:09;;;;;;;4.60;3.50;;;;;;;10.68;44.28;100712.97;128396;1287;99381;-75
2022/04/12 12:47:12;;;;;;;4.40;3.10;;;;;;;10.63;43.97;100714.16;128050;1288;100160;-75
2022/04/12 12:50:18;;;;;;;4.90;3.10;;;;;;;10.67;44.55;100711.13;128143;1287;100264;-74
2022/04/12 12:53:26;;;;;;;5.20;3.20;;;;;;;10.68;41.70;100709.79;128323;1287;100189;-74
2022/04/12 12:56:33;;;;;;;5.50;3.40;;;;;;;10.64;42.65;100706.48;128395;1287;100446;-75
2022/04/12 12:59:37;;;;;;;5.50;3.20;;;;;;;10.64;44.69;100704.71;128240;1287;100232;-75
2022/04/12 13:02:40;;;;;;;4.70;2.80;;;;;;;10.66;43.66;100695.35;128248;1287;100195;-75
2022/04/12 13:05:56;;;;;;;19.60;9.20;;;;;;;10.67;44.34;100690.52;128357;1287;100533;-75
2022/04/12 13:09:06;;;;;;;4.80;3.50;;;;;;;10.66;41.77;100696.29;128185;1287;99508;-75
2022/04/12 13:12:10;;;;;;;5.40;3.60;;;;;;;10.61;43.36;100698.85;128326;1287;100728;-75
2022/04/12 13:15:14;;;;;;;10.00;6.30;;;;;;;10.62;44.35;100688.32;128250;1287;99534;-75
2022/04/12 13:18:18;;;;;;;5.10;3.80;;;;;;;10.66;43.70;100687.21;128278;1287;99386;-74
2022/04/12 13:21:21;;;;;;;4.70;3.70;;;;;;;10.63;42.28;100688.02;128453;1286;100233;-75
2022/04/12 13:24:24;;;;;;;5.80;3.90;;;;;;;10.62;43.98;100683.81;128361;1287;99768;-75
2022/04/12 13:27:29;;;;;;;4.90;3.70;;;;;;;10.62;42.19;100681.87;128387;1287;100142;-75
2022/04/12 13:30:32;;;;;;;4.90;3.90;;;;;;;10.64;43.59;100687.80;128472;1287;99554;-75
2022/04/12 13:33:35;;;;;;;4.70;3.50;;;;;;;10.65;44.05;100685.69;128253;1287;99379;-75
2022/04/12 13:36:37;;;;;;;5.00;3.60;;;;;;;10.71;43.88;100693.71;128282;1287;99366;-75
2022/04/12 13:39:41;;;;;;;4.10;3.40;;;;;;;10.74;43.57;100692.31;128294;1287;99353;-75
2022/04/12 13:42:45;;;;;;;6.40;5.20;;;;;;;10.75;43.90;100698.45;128299;1287;99374;-75
2022/04/12 13:45:48;;;;;;;77.90;34.20;;;;;;;10.80;43.36;100697.50;128271;1287;99477;-75
2022/04/12 13:48:51;;;;;;;17.20;9.50;;;;;;;10.81;43.26;100693.47;128374;1287;99461;-75
2022/04/12 13:51:53;;;;;;;9.10;6.30;;;;;;;10.84;43.60;100699.92;128392;1287;99429;-75
2022/04/12 13:54:56;;;;;;;6.40;4.40;;;;;;;10.86;43.35;100701.55;128357;1287;99711;-76
2022/04/12 13:57:59;;;;;;;49.50;24.90;;;;;;;10.87;43.33;100696.66;128497;1287;99476;-74
2022/04/12 14:01:01;;;;;;;193.60;93.00;;;;;;;10.92;44.07;100699.04;128430;1288;99587;-75